Terminal Aerodrome Forecast
Issued by NWS

Home | Current Version | Previous Version | Text Only | Print | Product List | Glossary On
Versions: 1 2 3 4 5 6 7 8 9 10 11 12
906
FTUS45 KRIW 051720
TAFRKS
TAF
KRKS 051720Z 0518/0618 17008KT P6SM FEW100 BKN200
     FM052000 20014G24KT P6SM SCT080 BKN150
     FM060200 16008KT P6SM SCT070 BKN120
     FM061400 07015G23KT P6SM VCSH SCT030 BKN060=

USA.gov is the U.S. government's official web portal to all federal, state and local government web resources and services.